createdAt,value
2019-01-06T00:05:51.990Z,7.22
2019-01-06T00:11:46.969Z,7.46
2019-01-06T00:17:42.041Z,12.93
2019-01-06T00:23:36.942Z,17.93
2019-01-06T00:29:31.977Z,10.92
2019-01-06T00:35:26.940Z,9.08
2019-01-06T00:41:21.995Z,9.53
2019-01-06T00:47:16.975Z,9.58
2019-01-06T00:53:12.046Z,10.08
2019-01-06T00:59:06.971Z,9.93
2019-01-06T01:05:01.975Z,9.7
2019-01-06T01:10:56.960Z,10.05
2019-01-06T01:16:52.010Z,9.4
2019-01-06T01:22:47.002Z,9.32
2019-01-06T01:28:41.973Z,10.18
2019-01-06T01:34:36.989Z,8.18
2019-01-06T01:40:31.970Z,10.3
2019-01-06T01:46:26.968Z,12.34
2019-01-06T01:52:22.021Z,9.78
2019-01-06T01:58:17.010Z,8.67
2019-01-06T02:04:11.971Z,8.36
2019-01-06T02:10:06.981Z,8.07
2019-01-06T02:16:01.987Z,7.94
2019-01-06T02:21:56.975Z,7.82
2019-01-06T02:27:51.986Z,9.88
2019-01-06T02:33:47.030Z,9.64
2019-01-06T02:39:42.005Z,7.43
2019-01-06T02:45:36.971Z,7.34
2019-01-06T02:51:31.960Z,9.37
2019-01-06T02:57:27.015Z,8.75
2019-01-06T03:03:22.003Z,10.04
2019-01-06T03:09:17.016Z,13.09
2019-01-06T03:15:12.004Z,9.24
2019-01-06T03:21:06.982Z,13.16
2019-01-06T03:27:01.993Z,10.59
2019-01-06T03:32:57.026Z,8.27
2019-01-06T03:38:51.994Z,10.06
2019-01-06T03:44:47.010Z,8.86
2019-01-06T03:50:41.987Z,9.83
2019-01-06T03:56:36.999Z,8.4
2019-01-06T04:02:31.985Z,8.67
2019-01-06T04:08:27.030Z,8.59
2019-01-06T04:14:22.044Z,8.18
2019-01-06T04:20:17.012Z,9.39
2019-01-06T04:26:11.999Z,12.86
2019-01-06T04:32:06.995Z,13.69
2019-01-06T04:38:02.002Z,10.69
2019-01-06T04:43:57.002Z,7.87
2019-01-06T04:49:52.006Z,9.22
2019-01-06T04:55:47.031Z,11.06
2019-01-06T05:01:42.022Z,11.76
2019-01-06T05:07:37.067Z,11.63
2019-01-06T05:13:32.002Z,14.05
2019-01-06T05:19:27.018Z,13.68
2019-01-06T05:25:22.042Z,12.7
2019-01-06T05:31:17.081Z,10.42
2019-01-06T05:37:12.034Z,9.66
2019-01-06T05:43:07.089Z,8.79
2019-01-06T05:49:02.016Z,7.7
2019-01-06T05:54:57.017Z,10.63
2019-01-06T06:00:52.022Z,7.35
2019-01-06T06:06:47.032Z,7.07
2019-01-06T06:12:42.012Z,6.98
2019-01-06T06:18:37.018Z,6.97
2019-01-06T06:24:32.054Z,7.55
2019-01-06T06:30:27.117Z,6.41
2019-01-06T06:36:22.029Z,7.71
2019-01-06T06:42:17.053Z,8.1
2019-01-06T06:48:12.041Z,8.3
2019-01-06T06:54:07.075Z,6.92
2019-01-06T07:00:02.041Z,7.5
2019-01-06T07:05:57.079Z,9.06
2019-01-06T07:11:52.081Z,11.03
2019-01-06T07:17:47.071Z,9.56
2019-01-06T07:23:42.106Z,12.14
2019-01-06T07:29:37.059Z,10.96
2019-01-06T07:35:32.119Z,10.88
2019-01-06T07:41:27.072Z,12.82
2019-01-06T07:47:22.035Z,13.27
2019-01-06T07:53:17.080Z,12.93
2019-01-06T07:59:12.074Z,12.33
2019-01-06T08:05:07.049Z,13.09
2019-01-06T08:11:02.082Z,14.57
2019-01-06T08:16:57.054Z,15.1
2019-01-06T08:22:52.031Z,24.07
2019-01-06T08:28:47.078Z,27.47
2019-01-06T08:34:42.054Z,22.53
2019-01-06T08:40:37.055Z,28.49
2019-01-06T08:46:32.053Z,25.76
2019-01-06T08:52:27.055Z,27.12
2019-01-06T08:58:22.040Z,26.2
2019-01-06T09:04:17.052Z,27.87
2019-01-06T09:10:12.067Z,33.18
2019-01-06T09:16:07.080Z,32.17
2019-01-06T09:22:02.136Z,31.28
2019-01-06T09:27:57.086Z,31.91
2019-01-06T09:33:52.070Z,27.63
2019-01-06T09:39:47.063Z,31.58
2019-01-06T09:45:42.089Z,31.24
2019-01-06T09:51:37.101Z,28.94
2019-01-06T09:57:32.077Z,29.24
2019-01-06T10:03:27.057Z,29.66
2019-01-06T10:09:22.071Z,30.31
2019-01-06T10:15:17.071Z,32.16
2019-01-06T10:21:12.188Z,35.82
2019-01-06T10:27:07.068Z,32.2
2019-01-06T10:33:02.053Z,31.11
2019-01-06T10:38:57.129Z,27.5
2019-01-06T10:44:52.077Z,26.13
2019-01-06T10:50:47.112Z,27.13
2019-01-06T10:56:42.128Z,27.36
2019-01-06T11:02:37.065Z,25.62
2019-01-06T11:08:32.073Z,26.49
2019-01-06T11:14:27.122Z,28.77
2019-01-06T11:20:22.091Z,26.06
2019-01-06T11:26:17.096Z,23.79
2019-01-06T11:32:12.063Z,24.16
2019-01-06T11:38:07.080Z,24.92
2019-01-06T11:44:02.129Z,26.37
2019-01-06T11:49:57.071Z,26.12
2019-01-06T11:55:52.153Z,26.87
2019-01-06T12:01:47.122Z,30.58
2019-01-06T12:07:42.102Z,31.59
2019-01-06T12:13:37.115Z,35.72
2019-01-06T12:19:33.780Z,33.27
2019-01-06T12:25:27.149Z,28.31
2019-01-06T12:31:22.141Z,30.38
2019-01-06T12:37:17.091Z,30.73
2019-01-06T12:43:12.166Z,31.29
2019-01-06T12:49:07.094Z,32.41
2019-01-06T12:55:02.084Z,29.82
2019-01-06T13:00:57.149Z,27.49
2019-01-06T13:06:52.111Z,24.27
2019-01-06T13:12:47.178Z,19.84
2019-01-06T13:18:42.100Z,18.19
2019-01-06T13:24:37.109Z,17.88
2019-01-06T13:30:32.122Z,15.79
2019-01-06T13:36:27.093Z,14.77
2019-01-06T13:42:22.126Z,15.32
2019-01-06T13:48:17.126Z,14.24
2019-01-06T13:54:12.129Z,17.76
2019-01-06T14:00:07.116Z,18.31
2019-01-06T14:06:02.112Z,16.66
2019-01-06T14:11:57.142Z,16.41
2019-01-06T14:17:52.127Z,16.56
2019-01-06T14:23:47.133Z,14.98
2019-01-06T14:29:42.108Z,14.7
2019-01-06T14:35:37.133Z,17.87
2019-01-06T14:41:32.198Z,18.09
2019-01-06T14:47:27.112Z,18.56
2019-01-06T14:53:22.139Z,17.49
2019-01-06T14:59:17.178Z,18.86
2019-01-06T15:05:12.136Z,19.82
2019-01-06T15:11:07.148Z,20.94
2019-01-06T15:17:02.185Z,21.53
2019-01-06T15:22:57.171Z,25.41
2019-01-06T15:28:53.265Z,26.18
2019-01-06T15:34:47.170Z,22.61
2019-01-06T15:40:42.161Z,24.19
2019-01-06T15:46:37.155Z,18.4
2019-01-06T15:52:32.131Z,29.42
2019-01-06T15:58:27.145Z,25.72
2019-01-06T16:04:22.153Z,30.53
2019-01-06T16:10:17.143Z,26.22
2019-01-06T16:16:12.163Z,22.09
2019-01-06T16:22:07.146Z,16.93
2019-01-06T16:28:02.177Z,17.38
2019-01-06T16:33:57.168Z,18.97
2019-01-06T16:39:52.223Z,21.3
2019-01-06T16:45:47.144Z,19.68
2019-01-06T16:51:42.164Z,18.78
2019-01-06T16:57:37.140Z,18.1
2019-01-06T17:03:32.178Z,20.22
2019-01-06T17:09:27.170Z,20.73
2019-01-06T17:15:22.149Z,33.98
2019-01-06T17:21:17.158Z,33.3
2019-01-06T17:27:12.198Z,22.21
2019-01-06T17:33:07.175Z,19.88
2019-01-06T17:39:02.143Z,55.11
2019-01-06T17:44:57.190Z,20.86
2019-01-06T17:50:52.174Z,23.3
2019-01-06T17:56:47.167Z,17.61
2019-01-06T18:02:42.174Z,93.85
2019-01-06T18:08:37.196Z,22.7
2019-01-06T18:14:32.168Z,17.56
2019-01-06T18:20:27.187Z,21.23
2019-01-06T18:26:22.183Z,16.07
2019-01-06T18:32:17.207Z,18.78
2019-01-06T18:38:12.229Z,37.97
2019-01-06T18:44:07.244Z,68.16
2019-01-06T18:50:02.289Z,25.43
2019-01-06T18:55:57.270Z,26.59
2019-01-06T19:01:58.969Z,25.43
2019-01-06T19:07:47.220Z,13.8
2019-01-06T19:13:42.240Z,24.97
2019-01-06T19:19:37.184Z,14.35
2019-01-06T19:25:32.224Z,24.48
2019-01-06T19:31:27.204Z,26.46
2019-01-06T19:37:22.188Z,23.37
2019-01-06T19:43:17.171Z,16.34
2019-01-06T19:49:12.188Z,23.59
2019-01-06T19:55:07.212Z,53.01
2019-01-06T20:01:02.183Z,45.36
2019-01-06T20:06:57.236Z,37.59
2019-01-06T20:12:52.244Z,30.07
2019-01-06T20:18:47.188Z,25.61
2019-01-06T20:24:42.196Z,14.36
2019-01-06T20:30:37.207Z,13.02
2019-01-06T20:36:32.251Z,9.97
2019-01-06T20:42:27.211Z,10.36
2019-01-06T20:48:22.227Z,10.55
2019-01-06T20:54:17.314Z,9.58
2019-01-06T21:00:12.231Z,6.97
2019-01-06T21:06:07.204Z,9.85
2019-01-06T21:12:02.280Z,9.14
2019-01-06T21:17:57.216Z,9.12
2019-01-06T21:23:52.268Z,14.22
2019-01-06T21:29:47.219Z,13.71
2019-01-06T21:35:42.209Z,17.18
2019-01-06T21:41:37.231Z,19.17
2019-01-06T21:47:32.212Z,21.38
2019-01-06T21:53:27.243Z,15.87
2019-01-06T21:59:22.232Z,14.26
2019-01-06T22:05:17.222Z,13.57
2019-01-06T22:11:12.215Z,12.57
2019-01-06T22:17:07.232Z,11.15
2019-01-06T22:23:02.276Z,12.22
2019-01-06T22:28:57.260Z,10.38
2019-01-06T22:34:52.253Z,8.8
2019-01-06T22:40:47.239Z,10.25
2019-01-06T22:46:42.237Z,10.29
2019-01-06T22:52:37.297Z,9.4
2019-01-06T22:58:32.237Z,7.92
2019-01-06T23:04:27.284Z,7.9
2019-01-06T23:10:22.269Z,7.75
2019-01-06T23:16:17.234Z,6.85
2019-01-06T23:22:12.289Z,6.83
2019-01-06T23:28:07.235Z,6.63
2019-01-06T23:34:02.242Z,5.6
2019-01-06T23:39:57.243Z,4.63
2019-01-06T23:45:52.268Z,6.16
2019-01-06T23:51:47.242Z,6.66
2019-01-06T23:57:42.286Z,5.39
